Terminal Aerodrome Forecast
Issued by NWS

Home | Current Version | Previous Version | Text Only | Print | Product List | Glossary On
Versions: 1 2 3 4 5 6 7 8 9 10 11 12 13 14 15
000
FTUS44 KMOB 221123
TAFBFM
TAF
KBFM 221123Z 2212/2312 31004KT P6SM OVC200
     FM221600 13007KT P6SM VCSH BKN040
     FM222100 16009KT 5SM -TSRA BKN030CB
     FM230000 16007KT 5SM TSRA BR BKN020CB
      TEMPO 2300/2304 2SM +TSRA BKN015CB
     FM230400 20004KT 5SM TSRA BR BKN010CB PROB30 2304/2310 2SM
      +TSRA BKN010CB=

USA.gov is the U.S. government's official web portal to all federal, state and local government web resources and services.